Time;durP1;ratioP1;P1;durP2;ratioP2;P2;SDS_P1;SDS_P2;PMS_P1;PMS_P2;Temp;Humidity;BMP_temperature;BMP_pressure;BME280_temperature;BME280_humidity;BME280_pressure;Samples;Min_cycle;Max_cycle;Signal;HPM_P1;HPM_P2
2020/12/22 00:00:53;;;;;;;23.85;14.60;;;3.60;99.90;;;;;;5025749;28;20046;-74
2020/12/22 00:03:18;;;;;;;30.30;14.70;;;3.60;99.90;;;;;;5034413;28;20029;-74
2020/12/22 00:05:45;;;;;;;27.05;13.75;;;3.70;99.90;;;;;;5033539;28;20036;-72
2020/12/22 00:08:12;;;;;;;24.55;13.70;;;3.70;99.90;;;;;;5032742;28;20048;-74
2020/12/22 00:10:38;;;;;;;25.23;14.38;;;3.70;99.90;;;;;;5033694;28;20060;-75
2020/12/22 00:13:04;;;;;;;24.45;13.05;;;3.70;99.90;;;;;;5033297;28;20456;-80
2020/12/22 00:15:30;;;;;;;31.48;14.68;;;3.70;99.90;;;;;;5033488;28;20018;-74
2020/12/22 00:17:56;;;;;;;30.92;14.43;;;3.70;99.90;;;;;;5022427;28;20397;-74
2020/12/22 00:20:21;;;;;;;29.55;13.93;;;3.70;99.90;;;;;;5031832;28;20426;-71
2020/12/22 00:22:51;;;;;;;32.28;15.70;;;3.70;99.90;;;;;;5014267;28;20064;-73
2020/12/22 00:25:17;;;;;;;31.73;16.45;;;3.70;99.90;;;;;;5025241;28;20048;-74
2020/12/22 00:27:43;;;;;;;32.55;16.50;;;3.70;99.90;;;;;;5033337;28;20045;-75
2020/12/22 00:30:08;;;;;;;35.17;17.65;;;3.70;99.90;;;;;;5033652;28;20022;-74
2020/12/22 00:32:37;;;;;;;29.15;16.33;;;3.70;99.90;;;;;;5025260;28;20113;-76
2020/12/22 00:35:04;;;;;;;35.28;16.80;;;3.70;99.90;;;;;;5026161;28;20029;-76
2020/12/22 00:37:30;;;;;;;30.17;15.73;;;3.70;99.90;;;;;;5033161;28;20029;-73
2020/12/22 00:39:56;;;;;;;29.67;17.02;;;3.70;99.90;;;;;;5033091;28;20022;-72
2020/12/22 00:42:22;;;;;;;38.47;17.40;;;3.70;99.90;;;;;;5029077;28;20026;-72
2020/12/22 00:44:47;;;;;;;30.73;15.02;;;3.60;99.90;;;;;;5029048;28;20097;-73
2020/12/22 00:47:13;;;;;;;33.50;15.35;;;3.60;99.90;;;;;;5024684;28;20033;-73
2020/12/22 00:49:39;;;;;;;27.38;15.30;;;3.60;99.90;;;;;;5033266;28;20084;-73
2020/12/22 00:52:04;;;;;;;31.80;18.15;;;3.60;99.90;;;;;;5033381;28;20037;-73
2020/12/22 00:54:30;;;;;;;31.65;15.80;;;3.60;99.90;;;;;;5018044;28;20538;-73
2020/12/22 00:56:57;;;;;;;29.83;16.00;;;3.60;99.90;;;;;;5013305;28;20037;-74
2020/12/22 00:59:23;;;;;;;24.40;13.65;;;3.60;99.90;;;;;;5013359;28;20026;-75
2020/12/22 01:01:49;;;;;;;26.27;13.50;;;3.60;99.90;;;;;;5019385;28;20052;-73
2020/12/22 01:04:15;;;;;;;27.20;12.32;;;3.60;99.90;;;;;;5021552;28;20385;-72
2020/12/22 01:06:41;;;;;;;30.75;15.30;;;3.60;99.90;;;;;;5012610;28;20041;-73
2020/12/22 01:09:07;;;;;;;28.17;13.48;;;3.60;99.90;;;;;;5013346;28;20048;-73
2020/12/22 01:11:40;;;;;;;26.45;13.20;;;3.60;99.90;;;;;;5013816;28;20030;-73
2020/12/22 01:14:07;;;;;;;22.17;12.10;;;3.60;99.90;;;;;;5012443;28;20080;-73
2020/12/22 01:16:33;;;;;;;20.88;12.98;;;3.60;99.90;;;;;;5011667;28;20354;-73
2020/12/22 01:18:59;;;;;;;26.77;14.07;;;3.60;99.90;;;;;;5013170;28;20030;-72
2020/12/22 01:21:25;;;;;;;22.52;12.45;;;3.60;99.90;;;;;;5012118;28;20083;-73
2020/12/22 01:23:50;;;;;;;24.48;12.13;;;3.60;99.90;;;;;;5012923;28;20108;-73
2020/12/22 01:26:26;;;;;;;30.10;14.93;;;3.60;99.90;;;;;;4995808;28;20104;-73
2020/12/22 01:28:53;;;;;;;25.20;13.25;;;3.60;99.90;;;;;;5012136;28;20149;-73
2020/12/22 01:31:30;;;;;;;25.95;12.25;;;3.60;99.90;;;;;;5013056;28;20022;-73
2020/12/22 01:33:57;;;;;;;27.52;14.02;;;3.60;99.90;;;;;;5012743;28;20021;-73
2020/12/22 01:36:23;;;;;;;26.80;13.10;;;3.60;99.90;;;;;;5021814;28;20021;-72
2020/12/22 01:38:50;;;;;;;29.60;14.55;;;3.60;99.90;;;;;;5015414;28;20034;-73
2020/12/22 01:41:16;;;;;;;24.35;15.55;;;3.60;99.90;;;;;;5013227;28;20515;-72
2020/12/22 01:43:43;;;;;;;26.52;15.27;;;3.50;99.90;;;;;;5011973;28;20375;-74
2020/12/22 01:46:09;;;;;;;24.92;14.65;;;3.50;99.90;;;;;;5012888;28;20026;-75
2020/12/22 01:48:37;;;;;;;25.92;13.73;;;3.50;99.90;;;;;;5012707;28;20088;-74
2020/12/22 01:51:04;;;;;;;23.75;14.15;;;3.50;99.90;;;;;;4995762;28;20410;-72
2020/12/22 01:53:30;;;;;;;24.88;13.68;;;3.50;99.90;;;;;;5025260;28;20109;-73
2020/12/22 01:55:56;;;;;;;24.65;12.85;;;3.50;99.90;;;;;;5012146;28;20109;-73
2020/12/22 01:58:22;;;;;;;24.52;12.68;;;3.50;99.90;;;;;;5011514;28;20025;-74
2020/12/22 02:00:47;;;;;;;24.80;13.77;;;3.50;99.90;;;;;;5012548;28;20053;-73
2020/12/22 02:03:14;;;;;;;25.83;13.80;;;3.50;99.90;;;;;;4995098;28;20022;-72
2020/12/22 02:05:40;;;;;;;21.42;12.40;;;3.50;99.90;;;;;;5012183;28;20033;-71
2020/12/22 02:08:06;;;;;;;19.70;12.15;;;3.50;99.90;;;;;;4995223;28;20038;-73
2020/12/22 02:10:32;;;;;;;24.05;12.85;;;3.50;99.90;;;;;;5020520;28;20475;-72
2020/12/22 02:12:59;;;;;;;33.05;14.98;;;3.50;99.90;;;;;;5017632;28;20029;-72
2020/12/22 02:15:26;;;;;;;24.92;13.73;;;3.50;99.90;;;;;;5012407;28;20525;-75
2020/12/22 02:17:52;;;;;;;24.67;12.23;;;3.50;99.90;;;;;;5024464;28;20164;-73
2020/12/22 02:20:18;;;;;;;27.10;12.50;;;3.40;99.90;;;;;;5016763;28;20052;-74
2020/12/22 02:22:44;;;;;;;23.52;13.57;;;3.40;99.90;;;;;;5021158;28;20065;-74
2020/12/22 02:25:17;;;;;;;22.17;11.95;;;3.40;99.90;;;;;;5012275;28;20380;-74
2020/12/22 02:27:44;;;;;;;20.90;10.95;;;3.40;99.90;;;;;;5011937;28;20528;-73
2020/12/22 02:30:10;;;;;;;26.77;13.50;;;3.40;99.90;;;;;;5012292;28;20049;-75
2020/12/22 02:32:36;;;;;;;25.33;14.57;;;3.40;99.90;;;;;;5012217;28;20058;-73
2020/12/22 02:35:03;;;;;;;25.23;13.93;;;3.40;99.90;;;;;;5011601;28;20449;-72
2020/12/22 02:37:29;;;;;;;22.23;13.73;;;3.30;99.90;;;;;;4996471;28;20032;-73
2020/12/22 02:39:55;;;;;;;23.55;13.68;;;3.30;99.90;;;;;;5014478;28;20030;-72
2020/12/22 02:42:21;;;;;;;22.40;11.82;;;3.20;99.90;;;;;;5014166;28;20025;-71
2020/12/22 02:44:47;;;;;;;21.35;11.70;;;3.20;99.90;;;;;;5014736;28;20032;-72
2020/12/22 02:47:15;;;;;;;20.13;11.05;;;3.20;99.90;;;;;;5011686;28;20033;-72
2020/12/22 02:49:41;;;;;;;15.70;9.52;;;3.20;99.90;;;;;;5012389;28;20034;-71
2020/12/22 02:52:08;;;;;;;21.30;9.95;;;3.20;99.90;;;;;;5022434;28;20375;-72
2020/12/22 02:54:34;;;;;;;18.63;10.13;;;3.10;99.90;;;;;;5015789;28;20063;-74
2020/12/22 02:57:01;;;;;;;17.48;9.45;;;3.10;99.90;;;;;;5015049;28;20451;-73
2020/12/22 02:59:27;;;;;;;17.45;10.23;;;3.10;99.90;;;;;;5015956;28;20029;-74
2020/12/22 03:01:53;;;;;;;15.32;9.68;;;3.10;99.90;;;;;;4996909;28;20053;-73
2020/12/22 03:04:19;;;;;;;17.52;11.02;;;3.10;99.90;;;;;;5015187;28;20092;-73
2020/12/22 03:06:44;;;;;;;21.77;11.23;;;3.10;99.90;;;;;;5015566;28;20453;-72
2020/12/22 03:09:10;;;;;;;15.27;8.82;;;3.00;99.90;;;;;;5015839;28;20465;-74
2020/12/22 03:11:36;;;;;;;18.67;9.07;;;3.00;99.90;;;;;;5015329;28;20026;-74
2020/12/22 03:14:02;;;;;;;18.33;9.38;;;3.10;99.90;;;;;;5015631;28;20087;-74
2020/12/22 03:16:27;;;;;;;16.83;10.55;;;3.10;99.90;;;;;;5014733;28;20109;-74
2020/12/22 03:18:53;;;;;;;18.60;10.75;;;3.10;99.90;;;;;;5015093;28;20040;-75
2020/12/22 03:21:20;;;;;;;16.83;9.38;;;3.10;99.90;;;;;;5015092;28;20487;-74
2020/12/22 03:23:46;;;;;;;21.30;9.63;;;3.00;99.90;;;;;;5015371;28;20038;-72
2020/12/22 03:26:11;;;;;;;19.85;9.98;;;3.10;99.90;;;;;;5025309;28;20033;-74
2020/12/22 03:28:37;;;;;;;22.65;11.40;;;3.00;99.90;;;;;;5018318;28;20431;-75
2020/12/22 03:31:03;;;;;;;18.17;10.75;;;3.00;99.90;;;;;;5015481;28;20030;-74
2020/12/22 03:33:29;;;;;;;21.48;10.50;;;3.00;99.90;;;;;;4998545;28;20030;-78
2020/12/22 03:35:55;;;;;;;16.42;10.65;;;3.00;99.90;;;;;;5015080;28;20034;-74
2020/12/22 03:38:21;;;;;;;19.63;9.95;;;3.00;99.90;;;;;;5015880;28;20034;-74
2020/12/22 03:40:47;;;;;;;16.63;9.68;;;3.00;99.90;;;;;;5015504;28;20088;-74
2020/12/22 03:43:13;;;;;;;14.98;9.93;;;3.00;99.90;;;;;;5015563;28;20448;-72
2020/12/22 03:45:39;;;;;;;19.33;9.88;;;3.00;99.90;;;;;;5015205;28;20029;-73
2020/12/22 03:48:05;;;;;;;20.67;10.10;;;3.00;99.90;;;;;;4997358;28;20403;-73
2020/12/22 03:50:31;;;;;;;21.20;9.73;;;2.90;99.90;;;;;;5014736;28;20029;-72
2020/12/22 03:53:01;;;;;;;16.75;9.25;;;2.90;99.90;;;;;;5029185;28;20026;-73
2020/12/22 03:55:26;;;;;;;16.23;9.52;;;2.90;99.90;;;;;;5014807;28;20426;-73
2020/12/22 03:57:52;;;;;;;14.27;8.30;;;2.90;99.90;;;;;;4997446;28;20026;-72
2020/12/22 04:00:18;;;;;;;15.93;8.38;;;2.90;99.90;;;;;;5015288;28;20488;-73
2020/12/22 04:02:44;;;;;;;17.23;8.70;;;2.90;99.90;;;;;;5014564;28;20060;-72
2020/12/22 04:05:10;;;;;;;12.98;8.32;;;2.90;99.90;;;;;;4997713;28;20022;-72
2020/12/22 04:07:37;;;;;;;14.15;8.90;;;2.90;99.90;;;;;;5015266;28;20048;-73
2020/12/22 04:10:07;;;;;;;17.30;7.80;;;2.90;99.90;;;;;;5027729;28;20033;-73
2020/12/22 04:12:36;;;;;;;14.07;7.22;;;2.90;99.90;;;;;;5015356;28;20018;-73
2020/12/22 04:15:03;;;;;;;16.38;9.38;;;2.90;99.90;;;;;;5014784;28;20171;-72
2020/12/22 04:17:29;;;;;;;18.20;9.40;;;2.80;99.90;;;;;;5014044;28;20464;-73
2020/12/22 04:19:54;;;;;;;17.52;9.20;;;2.80;99.90;;;;;;5014782;28;20045;-74
2020/12/22 04:22:20;;;;;;;14.30;8.55;;;2.70;99.90;;;;;;5021745;28;20021;-73
2020/12/22 04:24:47;;;;;;;16.77;8.18;;;2.80;99.90;;;;;;5021893;28;20029;-73
2020/12/22 04:27:13;;;;;;;16.65;8.60;;;2.80;99.90;;;;;;5014763;28;20533;-73
2020/12/22 04:29:38;;;;;;;13.63;8.07;;;2.70;99.90;;;;;;5013692;28;20081;-74
2020/12/22 04:32:04;;;;;;;13.70;8.15;;;2.70;99.90;;;;;;5014661;28;20022;-73
2020/12/22 04:34:30;;;;;;;14.55;9.07;;;2.70;99.90;;;;;;5014739;28;20375;-73
2020/12/22 04:36:56;;;;;;;16.27;8.65;;;2.70;99.90;;;;;;5016294;28;20406;-74
2020/12/22 04:39:21;;;;;;;16.92;8.02;;;2.70;99.90;;;;;;5017216;28;20068;-74
2020/12/22 04:41:49;;;;;;;16.20;8.20;;;2.70;99.90;;;;;;5030265;28;20435;-74
2020/12/22 04:44:15;;;;;;;16.17;9.20;;;2.70;99.90;;;;;;5034300;28;20017;-73
2020/12/22 04:46:43;;;;;;;16.42;8.88;;;2.70;99.90;;;;;;5033508;28;20068;-74
2020/12/22 04:49:10;;;;;;;16.70;8.75;;;2.70;99.90;;;;;;5033963;28;20021;-73
2020/12/22 04:51:38;;;;;;;22.23;12.15;;;2.70;99.90;;;;;;5033747;28;20033;-73
2020/12/22 04:54:07;;;;;;;38.42;17.80;;;2.60;99.90;;;;;;5021973;28;20824;-73
2020/12/22 04:56:34;;;;;;;28.50;15.40;;;2.70;99.90;;;;;;5027730;28;20050;-73
2020/12/22 04:59:00;;;;;;;23.63;12.32;;;2.70;99.90;;;;;;5013862;28;20026;-72
2020/12/22 05:01:26;;;;;;;21.52;12.43;;;2.80;99.90;;;;;;5014179;28;20140;-73
2020/12/22 05:03:51;;;;;;;24.98;12.77;;;2.80;99.90;;;;;;4996694;28;20057;-73
2020/12/22 05:06:17;;;;;;;26.83;13.23;;;2.80;99.90;;;;;;5013865;28;20030;-72
2020/12/22 05:08:43;;;;;;;21.20;11.98;;;2.70;99.90;;;;;;5013931;28;20034;-72
2020/12/22 05:11:15;;;;;;;20.15;10.60;;;2.70;99.90;;;;;;5013392;28;20030;-74
2020/12/22 05:13:41;;;;;;;20.10;10.38;;;2.70;99.90;;;;;;5012545;28;20655;-71
2020/12/22 05:16:09;;;;;;;19.90;10.98;;;2.60;99.90;;;;;;4995979;28;20054;-73
2020/12/22 05:18:35;;;;;;;17.95;9.98;;;2.60;99.90;;;;;;5013040;28;20037;-74
2020/12/22 05:21:01;;;;;;;27.70;12.48;;;2.60;99.90;;;;;;5013851;28;20060;-73
2020/12/22 05:23:29;;;;;;;29.17;12.20;;;2.60;99.90;;;;;;5013774;28;20026;-73
2020/12/22 05:25:55;;;;;;;24.55;12.48;;;2.60;99.90;;;;;;5022235;28;20021;-74
2020/12/22 05:28:23;;;;;;;22.42;11.32;;;2.60;99.90;;;;;;5018981;28;20381;-73
2020/12/22 05:30:50;;;;;;;17.58;9.57;;;2.60;99.90;;;;;;5014212;28;20110;-73
2020/12/22 05:33:17;;;;;;;21.67;10.35;;;2.50;99.90;;;;;;5013089;28;20026;-73
2020/12/22 05:35:45;;;;;;;19.15;9.73;;;2.60;99.90;;;;;;5000548;28;20091;-74
2020/12/22 05:38:11;;;;;;;20.67;10.55;;;2.50;99.90;;;;;;5021839;28;20503;-73
2020/12/22 05:40:39;;;;;;;19.95;9.65;;;2.60;99.90;;;;;;5013483;28;20022;-74
2020/12/22 05:43:05;;;;;;;17.98;10.43;;;2.60;99.90;;;;;;5014594;28;20499;-73
2020/12/22 05:45:33;;;;;;;21.25;10.07;;;2.60;99.90;;;;;;5019702;28;20391;-73
2020/12/22 05:47:59;;;;;;;19.00;9.93;;;2.60;99.90;;;;;;5000756;28;20033;-73
2020/12/22 05:50:25;;;;;;;19.52;10.27;;;2.60;99.90;;;;;;5018534;28;20025;-72
2020/12/22 05:52:55;;;;;;;19.15;12.10;;;2.60;99.90;;;;;;5027862;28;20029;-72
2020/12/22 05:55:41;;;;;;;19.33;10.85;;;2.60;99.90;;;;;;5013273;28;20026;-73
2020/12/22 05:58:12;;;;;;;18.02;10.55;;;2.60;99.90;;;;;;5012495;28;20030;-73
2020/12/22 06:00:42;;;;;;;22.00;11.82;;;2.60;99.90;;;;;;5013302;28;20353;-73
2020/12/22 06:03:13;;;;;;;21.85;11.38;;;2.60;99.90;;;;;;5012851;28;20026;-73
2020/12/22 06:05:44;;;;;;;25.45;13.25;;;2.70;99.90;;;;;;5013698;28;20052;-73
2020/12/22 06:08:14;;;;;;;24.92;12.15;;;2.70;99.90;;;;;;5013187;28;20034;-73
2020/12/22 06:10:41;;;;;;;32.67;12.05;;;2.60;99.90;;;;;;5012916;28;20361;-72
2020/12/22 06:13:09;;;;;;;19.70;10.40;;;2.70;99.90;;;;;;5012664;28;20050;-73
2020/12/22 06:15:35;;;;;;;24.42;13.23;;;2.70;99.90;;;;;;5013352;28;20080;-73
2020/12/22 06:18:02;;;;;;;21.45;11.75;;;2.70;99.90;;;;;;5012176;28;20038;-73
2020/12/22 06:20:29;;;;;;;30.45;14.55;;;2.70;99.90;;;;;;4995539;28;20022;-73
2020/12/22 06:23:06;;;;;;;34.55;14.15;;;2.70;99.90;;;;;;5012899;28;20432;-72
2020/12/22 06:25:33;;;;;;;25.38;13.18;;;2.70;99.90;;;;;;5013215;28;20029;-73
2020/12/22 06:27:59;;;;;;;19.13;12.25;;;2.70;99.90;;;;;;5013101;28;20030;-74
2020/12/22 06:30:45;;;;;;;27.27;13.85;;;2.70;99.90;;;;;;5016209;28;20100;-74
2020/12/22 06:33:20;;;;;;;25.33;12.30;;;2.70;99.90;;;;;;5016634;28;20041;-74
2020/12/22 06:36:07;;;;;;;27.38;15.32;;;2.70;99.90;;;;;;5021582;28;20482;-75
2020/12/22 06:39:02;;;;;;;28.90;15.52;;;2.70;99.90;;;;;;5021222;28;20038;-74
2020/12/22 06:41:40;;;;;;;32.15;15.23;;;2.60;99.90;;;;;;5016074;28;20483;-73
2020/12/22 06:44:29;;;;;;;29.30;16.63;;;2.60;99.90;;;;;;5016295;28;20456;-73
2020/12/22 06:47:00;;;;;;;44.00;19.45;;;2.50;99.90;;;;;;5016897;28;20029;-73
2020/12/22 06:49:53;;;;;;;29.02;17.38;;;2.50;99.90;;;;;;5016915;28;20108;-73
2020/12/22 06:52:36;;;;;;;33.20;17.27;;;2.60;99.90;;;;;;5027759;28;20031;-74
2020/12/22 06:55:07;;;;;;;30.80;17.02;;;2.60;99.90;;;;;;5030574;28;20534;-74
2020/12/22 06:57:39;;;;;;;30.10;17.17;;;2.70;99.90;;;;;;5016140;28;20030;-74
2020/12/22 07:00:05;;;;;;;26.58;15.23;;;2.80;99.90;;;;;;5016273;28;20108;-74
2020/12/22 07:02:37;;;;;;;32.20;16.27;;;2.80;99.90;;;;;;5016050;28;20527;-73
2020/12/22 07:05:06;;;;;;;35.45;17.05;;;2.90;99.90;;;;;;5016051;28;20228;-72
2020/12/22 07:07:56;;;;;;;31.85;15.93;;;3.00;99.90;;;;;;5016104;28;20108;-73
2020/12/22 07:10:23;;;;;;;34.13;16.83;;;3.00;99.90;;;;;;5007147;28;20483;-71
2020/12/22 07:12:55;;;;;;;40.13;18.35;;;3.10;99.90;;;;;;5016068;28;20101;-72
2020/12/22 07:15:21;;;;;;;29.40;14.55;;;3.20;99.90;;;;;;5017515;28;20029;-78
2020/12/22 07:17:46;;;;;;;30.70;15.35;;;3.20;99.90;;;;;;5024340;28;20048;-72
2020/12/22 07:20:13;;;;;;;24.17;13.57;;;3.30;99.90;;;;;;5007216;28;20452;-72
2020/12/22 07:22:39;;;;;;;26.95;14.95;;;3.40;99.90;;;;;;5029741;28;20049;-75
2020/12/22 07:25:06;;;;;;;27.88;15.68;;;3.50;99.90;;;;;;5031728;28;20104;-74
2020/12/22 07:27:32;;;;;;;31.80;17.40;;;3.50;99.90;;;;;;5017632;28;20137;-75
2020/12/22 07:29:58;;;;;;;38.67;19.15;;;3.50;99.90;;;;;;5024187;28;20060;-75
2020/12/22 07:32:24;;;;;;;32.90;17.38;;;3.50;99.90;;;;;;5026017;28;20444;-74
2020/12/22 07:34:51;;;;;;;28.77;17.02;;;3.40;99.90;;;;;;5032767;28;20029;-73
2020/12/22 07:37:17;;;;;;;31.90;17.48;;;3.40;99.90;;;;;;5032627;28;20070;-73
2020/12/22 07:39:43;;;;;;;34.50;18.27;;;3.40;99.90;;;;;;5033157;28;20490;-73
2020/12/22 07:42:16;;;;;;;27.42;16.63;;;3.40;99.90;;;;;;5031053;28;20017;-74
2020/12/22 07:44:43;;;;;;;27.70;16.35;;;3.30;99.90;;;;;;5031602;28;20034;-74
2020/12/22 07:47:10;;;;;;;27.98;16.80;;;3.40;99.90;;;;;;5031633;28;20518;-73
2020/12/22 07:49:37;;;;;;;38.53;19.52;;;3.30;99.90;;;;;;5032792;28;20060;-75
2020/12/22 07:52:03;;;;;;;39.95;19.10;;;3.30;99.90;;;;;;5030451;28;20026;-74
2020/12/22 07:54:29;;;;;;;42.92;21.35;;;3.30;99.90;;;;;;5024304;28;20022;-74
2020/12/22 07:56:59;;;;;;;33.13;19.25;;;3.30;99.90;;;;;;5018226;28;20152;-73
2020/12/22 07:59:25;;;;;;;37.17;19.55;;;3.40;99.90;;;;;;5028947;28;20021;-73
2020/12/22 08:01:52;;;;;;;41.60;19.90;;;3.40;99.90;;;;;;5027780;28;20057;-73
2020/12/22 08:04:18;;;;;;;36.38;21.83;;;3.40;99.90;;;;;;5032754;28;20033;-75
2020/12/22 08:07:02;;;;;;;40.80;23.13;;;3.50;99.90;;;;;;5023176;28;20025;-73
2020/12/22 08:09:38;;;;;;;47.63;21.73;;;3.60;99.90;;;;;;5019019;28;20018;-75
2020/12/22 08:12:08;;;;;;;41.03;22.35;;;3.90;99.90;;;;;;5009901;28;20030;-73
2020/12/22 08:14:42;;;;;;;38.38;20.63;;;4.20;99.90;;;;;;5028567;28;20029;-72
2020/12/22 08:17:18;;;;;;;33.70;19.10;;;4.50;99.90;;;;;;5016921;28;20044;-74
2020/12/22 08:19:45;;;;;;;33.63;16.95;;;4.60;99.90;;;;;;5016255;28;20095;-75
2020/12/22 08:22:15;;;;;;;31.73;16.85;;;4.70;99.90;;;;;;5005820;28;20034;-72
2020/12/22 08:24:41;;;;;;;31.30;17.83;;;4.60;99.90;;;;;;5026983;28;20564;-74
2020/12/22 08:27:08;;;;;;;23.80;15.10;;;4.60;99.90;;;;;;5033214;28;20041;-72
2020/12/22 08:29:37;;;;;;;31.90;16.40;;;4.60;99.90;;;;;;5032395;28;20056;-75
2020/12/22 08:32:02;;;;;;;36.42;16.73;;;4.70;99.90;;;;;;5022300;28;20156;-74
2020/12/22 08:34:29;;;;;;;31.05;16.85;;;4.60;99.90;;;;;;5002583;28;20436;-75
2020/12/22 08:36:55;;;;;;;32.75;16.10;;;4.70;99.90;;;;;;5027369;28;20028;-76
2020/12/22 08:39:28;;;;;;;38.45;18.55;;;4.70;99.90;;;;;;5022412;28;20475;-81
2020/12/22 08:41:58;;;;;;;26.52;14.82;;;4.70;99.90;;;;;;5026927;28;20025;-73
2020/12/22 08:44:25;;;;;;;28.48;13.88;;;4.80;99.90;;;;;;5030205;28;20482;-75
2020/12/22 08:46:53;;;;;;;30.50;16.73;;;4.90;99.90;;;;;;5028563;28;20033;-74
2020/12/22 08:49:28;;;;;;;29.65;15.88;;;5.00;99.90;;;;;;5008374;28;20125;-77
2020/12/22 08:51:56;;;;;;;28.10;16.23;;;5.00;99.90;;;;;;5020165;28;20023;-73
2020/12/22 08:54:26;;;;;;;31.90;18.27;;;5.10;99.90;;;;;;5011537;28;20026;-76
2020/12/22 08:56:52;;;;;;;34.17;17.58;;;5.10;99.90;;;;;;5038219;28;20017;-74
2020/12/22 08:59:27;;;;;;;32.97;17.23;;;5.20;99.90;;;;;;5024753;28;20061;-74
2020/12/22 09:01:53;;;;;;;29.80;17.00;;;5.20;99.90;;;;;;5020718;28;20089;-72
2020/12/22 09:04:32;;;;;;;34.88;17.88;;;5.20;99.90;;;;;;5018736;28;20022;-74
2020/12/22 09:06:58;;;;;;;27.92;14.18;;;5.20;99.90;;;;;;5015754;28;20036;-74
2020/12/22 09:09:32;;;;;;;27.45;16.63;;;5.20;99.90;;;;;;5003847;28;20526;-72
2020/12/22 09:12:06;;;;;;;29.98;15.23;;;5.30;99.90;;;;;;5013495;28;20519;-72
2020/12/22 09:14:40;;;;;;;28.30;15.05;;;5.30;99.90;;;;;;5015110;28;20037;-76
2020/12/22 09:17:06;;;;;;;29.00;14.25;;;5.40;99.90;;;;;;5023536;28;20030;-73
2020/12/22 09:19:45;;;;;;;29.25;14.32;;;5.40;99.90;;;;;;5014897;28;20030;-73
2020/12/22 09:22:11;;;;;;;23.75;14.32;;;5.40;99.90;;;;;;5020170;28;20017;-75
2020/12/22 09:24:37;;;;;;;29.80;15.63;;;5.40;99.90;;;;;;5014084;28;20026;-73
2020/12/22 09:27:11;;;;;;;31.35;14.93;;;5.50;99.90;;;;;;5018469;28;20033;-74
2020/12/22 09:29:41;;;;;;;21.35;12.20;;;5.60;99.90;;;;;;5006091;28;20021;-73
2020/12/22 09:32:11;;;;;;;26.95;16.52;;;5.60;99.90;;;;;;5021417;28;20026;-74
2020/12/22 09:34:39;;;;;;;26.35;14.93;;;5.70;99.90;;;;;;5029124;28;20087;-73
2020/12/22 09:37:08;;;;;;;31.80;14.02;;;5.70;99.90;;;;;;5022013;28;20045;-71
2020/12/22 09:39:38;;;;;;;23.45;13.95;;;5.90;99.90;;;;;;5032233;28;20021;-72
2020/12/22 09:42:05;;;;;;;24.77;13.07;;;6.00;99.90;;;;;;5031823;28;20033;-71
2020/12/22 09:44:31;;;;;;;25.17;13.68;;;6.10;99.90;;;;;;5030689;28;20034;-70
2020/12/22 09:46:58;;;;;;;24.63;13.27;;;6.20;99.90;;;;;;5028651;28;20033;-72
2020/12/22 09:49:25;;;;;;;25.65;12.85;;;6.20;99.90;;;;;;5020898;28;20482;-73
2020/12/22 09:51:51;;;;;;;19.38;11.10;;;6.30;99.90;;;;;;5015505;28;20018;-71
2020/12/22 09:54:18;;;;;;;24.70;12.90;;;6.30;99.90;;;;;;5015692;28;20068;-72
2020/12/22 09:56:44;;;;;;;20.52;12.52;;;6.30;99.90;;;;;;5017898;28;20088;-73
2020/12/22 09:59:10;;;;;;;25.48;13.00;;;6.30;99.90;;;;;;5031177;28;20456;-73
2020/12/22 10:01:36;;;;;;;22.83;14.05;;;6.30;99.90;;;;;;5031375;28;20053;-74
2020/12/22 10:04:02;;;;;;;25.75;14.32;;;6.20;99.90;;;;;;5032084;28;20051;-74
2020/12/22 10:06:28;;;;;;;28.25;13.55;;;6.20;99.90;;;;;;5030495;28;20022;-74
2020/12/22 10:08:55;;;;;;;22.45;12.77;;;6.20;99.90;;;;;;5023781;28;20038;-73
2020/12/22 10:11:22;;;;;;;23.15;13.23;;;6.20;99.90;;;;;;5023279;28;20062;-72
2020/12/22 10:13:48;;;;;;;27.05;13.43;;;6.20;99.90;;;;;;5016738;28;20034;-72
2020/12/22 10:16:16;;;;;;;32.65;17.17;;;6.20;99.90;;;;;;5017274;28;20038;-73
2020/12/22 10:18:42;;;;;;;28.83;16.98;;;6.30;99.90;;;;;;5029887;28;20455;-72
2020/12/22 10:21:12;;;;;;;24.92;15.10;;;6.30;99.90;;;;;;5016485;28;20113;-73
2020/12/22 10:23:39;;;;;;;32.28;17.60;;;6.40;99.90;;;;;;5029355;28;20487;-73
2020/12/22 10:26:08;;;;;;;25.90;15.20;;;6.50;99.90;;;;;;4980571;28;20069;-72
2020/12/22 10:28:36;;;;;;;30.30;15.95;;;6.60;99.90;;;;;;5031051;28;20112;-73
2020/12/22 10:31:02;;;;;;;28.52;17.25;;;6.60;99.90;;;;;;5005848;28;20388;-74
2020/12/22 10:33:28;;;;;;;26.42;14.90;;;6.70;99.90;;;;;;5024584;28;20030;-72
2020/12/22 10:35:54;;;;;;;28.48;16.17;;;6.80;99.90;;;;;;5029059;28;20025;-72
2020/12/22 10:38:21;;;;;;;26.48;13.52;;;6.80;99.90;;;;;;5031915;28;20393;-73
2020/12/22 10:40:49;;;;;;;26.15;14.88;;;6.80;99.90;;;;;;5031762;28;20030;-73
2020/12/22 10:43:15;;;;;;;32.50;17.70;;;6.80;99.90;;;;;;5031484;28;20029;-73
2020/12/22 10:45:41;;;;;;;33.20;17.63;;;6.90;99.90;;;;;;5013960;28;20459;-73
2020/12/22 10:48:08;;;;;;;31.55;17.23;;;7.00;99.90;;;;;;5031184;28;20041;-73
2020/12/22 10:50:37;;;;;;;24.75;15.73;;;7.10;99.90;;;;;;5031551;28;20037;-74
2020/12/22 10:53:05;;;;;;;33.30;20.90;;;7.10;99.90;;;;;;5027732;28;20030;-72
2020/12/22 10:55:31;;;;;;;29.98;17.95;;;7.20;99.90;;;;;;5011973;28;20018;-74
2020/12/22 10:57:57;;;;;;;27.50;16.83;;;7.40;99.90;;;;;;5011465;28;20495;-74
2020/12/22 11:00:23;;;;;;;31.20;16.10;;;7.50;99.90;;;;;;5011722;28;20101;-72
2020/12/22 11:02:52;;;;;;;32.78;16.20;;;7.60;99.90;;;;;;4993007;28;20050;-73
2020/12/22 11:05:17;;;;;;;31.35;17.48;;;7.60;99.90;;;;;;5018105;28;20112;-74
2020/12/22 11:07:52;;;;;;;35.85;17.88;;;7.60;99.90;;;;;;5021899;28;20571;-72
2020/12/22 11:10:18;;;;;;;29.02;15.13;;;7.70;99.90;;;;;;5016442;28;20075;-72
2020/12/22 11:12:44;;;;;;;29.10;15.02;;;7.80;99.90;;;;;;5000002;28;20038;-70
2020/12/22 11:15:09;;;;;;;31.15;16.88;;;7.80;99.90;;;;;;5019243;28;20028;-72
2020/12/22 11:17:35;;;;;;;25.20;13.50;;;7.90;99.90;;;;;;5018382;28;20026;-72
2020/12/22 11:20:01;;;;;;;26.02;15.00;;;8.10;99.90;;;;;;5030286;28;20112;-76
2020/12/22 11:22:27;;;;;;;39.63;18.13;;;8.20;99.90;;;;;;5034314;28;20080;-73
2020/12/22 11:24:53;;;;;;;23.48;14.07;;;8.20;99.90;;;;;;5034424;28;20111;-73
2020/12/22 11:27:19;;;;;;;37.10;19.15;;;8.30;99.90;;;;;;5034990;28;20091;-72
2020/12/22 11:29:45;;;;;;;34.15;18.27;;;8.40;99.90;;;;;;5027691;28;20037;-74
2020/12/22 11:32:12;;;;;;;24.85;12.52;;;8.30;99.90;;;;;;5024350;28;20103;-72
2020/12/22 11:34:38;;;;;;;26.35;15.90;;;8.50;99.90;;;;;;5034436;28;20138;-72
2020/12/22 11:37:04;;;;;;;30.80;14.98;;;;;;;;;;5034135;28;20485;-72
2020/12/22 11:39:30;;;;;;;17.20;11.05;;;9.00;99.90;;;;;;5016014;28;20384;-74
2020/12/22 11:42:05;;;;;;;19.38;12.15;;;9.10;99.90;;;;;;5034478;28;20030;-74
2020/12/22 11:44:31;;;;;;;22.25;12.65;;;9.10;99.90;;;;;;5022563;28;20057;-73
2020/12/22 11:46:58;;;;;;;29.67;14.77;;;9.20;99.90;;;;;;5034026;28;20036;-72
2020/12/22 11:49:24;;;;;;;20.77;14.30;;;9.20;99.90;;;;;;5032529;28;20030;-72
2020/12/22 11:51:56;;;;;;;28.77;15.20;;;9.10;99.90;;;;;;5015394;28;20040;-73
2020/12/22 11:54:23;;;;;;;22.02;14.00;;;9.20;99.90;;;;;;5020777;28;20475;-77
2020/12/22 11:56:49;;;;;;;26.58;14.43;;;;;;;;;;5011918;28;20030;-72
2020/12/22 11:59:15;;;;;;;26.25;15.60;;;9.50;99.90;;;;;;5020083;28;20021;-73
2020/12/22 12:01:41;;;;;;;27.98;14.60;;;9.40;99.90;;;;;;5017306;28;20523;-70
2020/12/22 12:04:07;;;;;;;25.58;14.52;;;9.30;99.90;;;;;;5015454;28;20034;-74
2020/12/22 12:06:32;;;;;;;23.90;13.00;;;9.10;99.90;;;;;;5031325;28;20124;-71
2020/12/22 12:08:58;;;;;;;25.42;12.50;;;9.00;99.90;;;;;;5006764;28;20041;-74
2020/12/22 12:11:24;;;;;;;22.58;12.68;;;8.80;99.90;;;;;;5028874;28;20025;-73
2020/12/22 12:13:49;;;;;;;24.08;14.52;;;8.70;99.90;;;;;;5020790;28;20468;-72
2020/12/22 12:16:19;;;;;;;27.05;14.70;;;8.70;99.90;;;;;;5021064;28;20104;-74
2020/12/22 12:18:47;;;;;;;27.90;15.10;;;8.70;99.90;;;;;;5027919;28;20039;-74
2020/12/22 12:21:15;;;;;;;27.63;16.63;;;9.00;99.90;;;;;;5018071;28;20061;-73
2020/12/22 12:23:42;;;;;;;25.42;14.20;;;8.60;99.90;;;;;;5027670;28;20033;-73
2020/12/22 12:26:08;;;;;;;25.23;13.07;;;8.50;99.90;;;;;;5018754;28;20025;-76
2020/12/22 12:28:33;;;;;;;29.33;15.93;;;8.50;99.90;;;;;;5019536;28;20056;-75
2020/12/22 12:30:59;;;;;;;25.73;14.55;;;8.70;99.90;;;;;;5001187;28;20026;-76
2020/12/22 12:33:25;;;;;;;23.90;12.73;;;8.80;99.90;;;;;;5027639;28;20032;-75
2020/12/22 12:35:51;;;;;;;27.50;16.08;;;8.90;99.90;;;;;;5013716;28;20032;-74
2020/12/22 12:38:16;;;;;;;26.00;14.13;;;8.90;99.90;;;;;;5024644;28;20429;-75
2020/12/22 12:40:42;;;;;;;40.25;19.60;;;8.90;99.90;;;;;;5019314;28;20037;-75